Time;durP1;ratioP1;P1;durP2;ratioP2;P2;SDS_P1;SDS_P2;PMS_P1;PMS_P2;Temp;Humidity;BMP_temperature;BMP_pressure;BME280_temperature;BME280_humidity;BME280_pressure;Samples;Min_cycle;Max_cycle;Signal;HPM_P1;HPM_P2
2022/02/23 00:00:54;;;;;;;7.20;1.55;;;6.80;99.90;;;;;;5046471;28;20463;-74
2022/02/23 00:03:20;;;;;;;4.68;1.10;;;6.80;99.90;;;;;;5050801;28;20029;-74
2022/02/23 00:05:45;;;;;;;11.55;2.05;;;6.80;99.90;;;;;;5050789;28;20025;-74
2022/02/23 00:08:11;;;;;;;10.77;2.88;;;6.80;99.90;;;;;;5047925;28;20056;-74
2022/02/23 00:10:36;;;;;;;11.45;1.55;;;6.80;99.90;;;;;;5048051;28;20029;-74
2022/02/23 00:13:02;;;;;;;10.35;1.50;;;6.80;99.90;;;;;;5047405;28;20060;-74
2022/02/23 00:15:28;;;;;;;9.18;1.48;;;6.80;99.90;;;;;;5044435;28;20500;-74
2022/02/23 00:17:55;;;;;;;8.60;1.20;;;6.70;99.90;;;;;;5046582;28;20162;-74
2022/02/23 00:20:21;;;;;;;7.65;0.88;;;6.70;99.90;;;;;;5044938;28;20009;-74
2022/02/23 00:22:47;;;;;;;7.25;1.33;;;6.70;99.90;;;;;;5047224;28;20546;-74
2022/02/23 00:25:12;;;;;;;11.93;1.45;;;6.70;99.90;;;;;;5047330;28;20017;-74
2022/02/23 00:27:38;;;;;;;8.65;1.30;;;6.70;99.90;;;;;;5040360;28;20552;-74
2022/02/23 00:30:05;;;;;;;5.90;1.17;;;6.70;99.90;;;;;;5047092;28;20855;-74
2022/02/23 00:32:30;;;;;;;6.78;1.60;;;6.70;99.90;;;;;;5041872;28;20017;-74
2022/02/23 00:34:56;;;;;;;8.43;1.38;;;6.60;99.90;;;;;;5045050;28;20029;-74
2022/02/23 00:37:22;;;;;;;9.27;1.27;;;6.60;99.90;;;;;;5044651;28;20052;-74
2022/02/23 00:39:47;;;;;;;7.47;1.00;;;6.60;99.90;;;;;;5047653;28;20032;-74
2022/02/23 00:42:13;;;;;;;11.30;1.65;;;6.50;99.90;;;;;;5042071;28;20045;-74
2022/02/23 00:44:38;;;;;;;8.52;1.10;;;6.50;99.90;;;;;;5046286;28;20485;-74
2022/02/23 00:47:04;;;;;;;11.55;2.20;;;6.40;99.90;;;;;;5064852;28;20115;-74
2022/02/23 00:49:29;;;;;;;8.95;1.08;;;6.40;99.90;;;;;;5041334;28;20057;-74
2022/02/23 00:51:55;;;;;;;6.40;1.00;;;6.40;99.90;;;;;;5047417;28;20032;-74
2022/02/23 00:54:21;;;;;;;4.68;1.10;;;6.30;99.90;;;;;;5049589;28;20103;-74
2022/02/23 00:56:48;;;;;;;5.10;0.80;;;6.30;99.90;;;;;;5045445;28;20381;-74
2022/02/23 00:59:15;;;;;;;5.65;0.98;;;6.30;99.90;;;;;;5046777;28;20523;-75
2022/02/23 01:01:41;;;;;;;11.40;3.95;;;6.20;99.90;;;;;;5041174;28;20021;-74
2022/02/23 01:04:07;;;;;;;6.78;1.25;;;6.20;99.90;;;;;;5045687;28;20171;-75
2022/02/23 01:06:33;;;;;;;6.13;0.73;;;6.20;99.90;;;;;;5038117;28;20036;-74
2022/02/23 01:09:00;;;;;;;5.32;0.75;;;6.10;99.90;;;;;;5044727;28;20375;-74
2022/02/23 01:11:25;;;;;;;9.25;1.35;;;6.10;99.90;;;;;;5041702;28;20033;-74
2022/02/23 01:13:51;;;;;;;8.27;1.25;;;6.10;99.90;;;;;;5042534;28;20029;-74
2022/02/23 01:16:18;;;;;;;6.15;1.20;;;6.10;99.90;;;;;;5045700;28;20021;-74
2022/02/23 01:18:44;;;;;;;10.90;1.27;;;6.10;99.90;;;;;;5045282;28;20016;-74
2022/02/23 01:21:11;;;;;;;8.55;1.13;;;6.00;99.90;;;;;;5047934;28;20055;-75
2022/02/23 01:23:37;;;;;;;10.30;1.60;;;6.00;99.90;;;;;;5044135;28;20044;-74
2022/02/23 01:26:03;;;;;;;8.63;1.80;;;6.00;99.90;;;;;;5039834;28;20021;-74
2022/02/23 01:28:30;;;;;;;9.32;1.25;;;6.00;99.90;;;;;;5041240;28;20083;-74
2022/02/23 01:30:56;;;;;;;9.77;1.77;;;6.00;99.90;;;;;;5044457;28;20021;-74
2022/02/23 01:33:21;;;;;;;10.02;2.45;;;5.90;99.90;;;;;;5043055;28;20028;-74
2022/02/23 01:35:47;;;;;;;8.45;1.27;;;5.90;99.90;;;;;;5046490;28;20028;-74
2022/02/23 01:38:12;;;;;;;7.28;1.95;;;5.90;99.90;;;;;;5049219;28;20033;-74
2022/02/23 01:40:38;;;;;;;6.55;1.15;;;5.90;99.90;;;;;;5039459;28;20790;-74
2022/02/23 01:43:04;;;;;;;7.38;1.02;;;5.90;99.90;;;;;;5040832;28;20523;-74
2022/02/23 01:45:29;;;;;;;7.93;1.52;;;5.90;99.90;;;;;;5048157;28;20370;-74
2022/02/23 01:47:55;;;;;;;13.90;2.20;;;5.90;99.90;;;;;;5040677;28;20385;-74
2022/02/23 01:50:20;;;;;;;9.82;1.65;;;5.90;99.90;;;;;;5041874;28;20097;-74
2022/02/23 01:52:46;;;;;;;10.68;1.20;;;5.80;99.90;;;;;;5044826;28;20029;-75
2022/02/23 01:55:12;;;;;;;11.90;1.90;;;5.80;99.90;;;;;;5045694;28;20031;-74
2022/02/23 01:57:38;;;;;;;13.60;1.80;;;5.80;99.90;;;;;;5042605;28;20039;-74
2022/02/23 02:00:06;;;;;;;6.10;1.50;;;5.80;99.90;;;;;;5047991;28;20021;-74
2022/02/23 02:02:32;;;;;;;10.40;1.50;;;5.80;99.90;;;;;;5040183;28;20029;-74
2022/02/23 02:04:58;;;;;;;12.00;2.08;;;5.70;99.90;;;;;;5045832;28;20028;-74
2022/02/23 02:07:23;;;;;;;6.07;1.35;;;5.70;99.90;;;;;;5043179;28;20029;-74
2022/02/23 02:09:49;;;;;;;6.28;1.10;;;5.70;99.90;;;;;;5041816;28;20013;-74
2022/02/23 02:12:14;;;;;;;4.40;0.80;;;5.70;99.90;;;;;;5048572;28;20028;-74
2022/02/23 02:14:40;;;;;;;9.20;1.10;;;5.70;99.90;;;;;;5042976;28;20037;-74
2022/02/23 02:17:05;;;;;;;7.97;1.17;;;5.70;99.90;;;;;;5030722;28;20029;-75
2022/02/23 02:19:31;;;;;;;9.45;1.65;;;5.60;99.90;;;;;;5044377;28;20021;-74
2022/02/23 02:21:58;;;;;;;6.75;1.02;;;5.60;99.90;;;;;;5041368;28;20029;-74
2022/02/23 02:24:28;;;;;;;4.57;0.90;;;5.60;99.90;;;;;;5045760;28;20032;-74
2022/02/23 02:26:55;;;;;;;8.05;1.33;;;5.60;99.90;;;;;;5037620;28;20029;-74
2022/02/23 02:29:21;;;;;;;5.70;0.93;;;5.60;99.90;;;;;;5038796;28;20037;-74
2022/02/23 02:31:48;;;;;;;6.10;1.25;;;5.50;99.90;;;;;;5048436;28;20032;-74
2022/02/23 02:34:14;;;;;;;5.50;0.95;;;5.50;99.90;;;;;;5043079;28;20022;-74
2022/02/23 02:36:40;;;;;;;6.45;1.80;;;5.50;99.90;;;;;;5045665;28;20036;-74
2022/02/23 02:39:07;;;;;;;8.48;1.38;;;5.50;99.90;;;;;;5045752;28;20047;-74
2022/02/23 02:41:36;;;;;;;6.78;1.10;;;5.40;99.90;;;;;;5042846;28;20041;-74
2022/02/23 02:44:03;;;;;;;6.30;1.10;;;5.40;99.90;;;;;;5045885;28;20283;-74
2022/02/23 02:46:29;;;;;;;10.15;1.95;;;5.40;99.90;;;;;;5050857;28;20021;-74
2022/02/23 02:48:54;;;;;;;11.10;1.50;;;5.30;99.90;;;;;;5049416;28;20483;-74
2022/02/23 02:51:20;;;;;;;4.38;1.10;;;5.30;99.90;;;;;;5049662;28;20504;-74
2022/02/23 02:53:45;;;;;;;5.82;1.20;;;5.30;99.90;;;;;;5046671;28;20397;-74
2022/02/23 02:56:11;;;;;;;5.88;0.70;;;5.30;99.90;;;;;;5047890;28;20366;-74
2022/02/23 02:58:37;;;;;;;2.78;0.90;;;5.20;99.90;;;;;;5053639;28;20036;-74
2022/02/23 03:01:04;;;;;;;8.15;1.33;;;5.20;99.90;;;;;;5044398;28;20481;-74
2022/02/23 03:03:29;;;;;;;7.68;1.10;;;5.20;99.90;;;;;;5055195;28;20024;-74
2022/02/23 03:05:55;;;;;;;10.20;1.38;;;5.20;99.90;;;;;;5053712;28;20025;-75
2022/02/23 03:08:20;;;;;;;7.53;1.20;;;5.20;99.90;;;;;;5047578;28;20025;-74
2022/02/23 03:10:46;;;;;;;7.07;1.52;;;5.20;99.90;;;;;;5051937;28;20139;-74
2022/02/23 03:13:12;;;;;;;2.90;0.90;;;5.20;99.90;;;;;;5050499;28;20033;-74
2022/02/23 03:15:37;;;;;;;9.63;1.83;;;5.10;99.90;;;;;;5051970;28;20029;-74
2022/02/23 03:18:04;;;;;;;11.23;1.30;;;5.10;99.90;;;;;;5047489;28;20025;-74
2022/02/23 03:20:32;;;;;;;7.55;1.30;;;5.10;99.90;;;;;;5044213;28;20025;-74
2022/02/23 03:22:57;;;;;;;12.88;2.95;;;5.10;99.90;;;;;;5050432;28;20104;-74
2022/02/23 03:25:23;;;;;;;7.47;1.70;;;5.10;99.90;;;;;;5054559;28;20448;-74
2022/02/23 03:27:48;;;;;;;8.27;1.10;;;5.10;99.90;;;;;;5054751;28;20028;-74
2022/02/23 03:30:14;;;;;;;9.77;1.85;;;5.00;99.90;;;;;;5045848;28;20519;-74
2022/02/23 03:32:40;;;;;;;8.25;1.30;;;5.00;99.90;;;;;;5050987;28;20029;-74
2022/02/23 03:35:06;;;;;;;5.90;0.90;;;5.00;99.90;;;;;;5053108;28;20024;-74
2022/02/23 03:37:31;;;;;;;7.55;1.35;;;5.00;99.90;;;;;;5051943;28;20028;-74
2022/02/23 03:39:59;;;;;;;9.73;1.48;;;5.00;99.90;;;;;;5053221;28;20017;-74
2022/02/23 03:42:25;;;;;;;7.93;1.20;;;5.00;99.90;;;;;;5048118;28;20234;-74
2022/02/23 03:44:50;;;;;;;7.35;1.30;;;5.00;99.90;;;;;;5048382;28;20104;-74
2022/02/23 03:47:16;;;;;;;9.52;2.00;;;5.00;99.90;;;;;;5045608;28;20114;-74
2022/02/23 03:49:42;;;;;;;7.82;1.25;;;5.00;99.90;;;;;;5054985;28;20411;-74
2022/02/23 03:52:08;;;;;;;11.10;1.15;;;5.00;99.90;;;;;;5050454;28;20057;-74
2022/02/23 03:54:34;;;;;;;7.57;1.00;;;5.00;99.90;;;;;;5049255;28;20546;-75
2022/02/23 03:57:00;;;;;;;5.95;1.05;;;5.00;99.90;;;;;;5053193;28;20104;-74
2022/02/23 03:59:25;;;;;;;8.88;1.35;;;5.00;99.90;;;;;;5050837;28;20142;-74
2022/02/23 04:01:51;;;;;;;8.40;1.10;;;4.90;99.90;;;;;;5047815;28;20103;-74
2022/02/23 04:04:16;;;;;;;7.18;1.17;;;4.90;99.90;;;;;;5045675;28;20108;-74
2022/02/23 04:06:42;;;;;;;6.15;1.52;;;4.90;99.90;;;;;;5050704;28;20311;-74
2022/02/23 04:09:09;;;;;;;5.30;1.10;;;4.90;99.90;;;;;;5048228;28;20021;-74
2022/02/23 04:11:35;;;;;;;6.38;1.35;;;4.90;99.90;;;;;;5046500;28;20207;-74
2022/02/23 04:14:02;;;;;;;5.93;1.20;;;4.90;99.90;;;;;;5021369;28;20370;-74
2022/02/23 04:16:27;;;;;;;7.40;1.90;;;4.90;99.90;;;;;;5045631;28;20030;-74
2022/02/23 04:18:53;;;;;;;8.82;1.58;;;4.90;99.90;;;;;;5049206;28;20048;-74
2022/02/23 04:21:19;;;;;;;9.48;1.60;;;4.90;99.90;;;;;;5048776;28;20382;-74
2022/02/23 04:23:45;;;;;;;9.93;1.88;;;4.90;99.90;;;;;;5044998;28;20025;-74
2022/02/23 04:26:11;;;;;;;8.23;1.48;;;4.80;99.90;;;;;;5047888;28;20504;-74
2022/02/23 04:28:37;;;;;;;10.90;1.33;;;4.80;99.90;;;;;;5047889;28;20041;-74
2022/02/23 04:31:03;;;;;;;7.63;2.38;;;4.90;99.90;;;;;;5047666;28;20036;-74
2022/02/23 04:33:29;;;;;;;6.68;1.10;;;4.80;99.90;;;;;;5046418;28;20037;-74
2022/02/23 04:35:55;;;;;;;6.47;1.20;;;4.80;99.90;;;;;;5047161;28;20397;-74
2022/02/23 04:38:21;;;;;;;9.75;1.40;;;4.80;99.90;;;;;;5042866;28;20025;-74
2022/02/23 04:40:47;;;;;;;8.13;1.70;;;4.80;99.90;;;;;;5042100;28;20048;-74
2022/02/23 04:43:14;;;;;;;6.55;1.17;;;4.80;99.90;;;;;;5042268;28;20545;-74
2022/02/23 04:45:40;;;;;;;8.10;1.70;;;4.80;99.90;;;;;;5047564;28;20021;-74
2022/02/23 04:48:06;;;;;;;6.70;1.58;;;4.80;99.90;;;;;;5048112;28;20021;-74
2022/02/23 04:50:32;;;;;;;4.95;1.17;;;4.80;99.90;;;;;;5038748;28;20472;-74
2022/02/23 04:52:58;;;;;;;5.90;1.88;;;4.80;99.90;;;;;;5047435;28;20028;-74
2022/02/23 04:55:23;;;;;;;6.72;0.98;;;4.80;99.90;;;;;;5045659;28;20020;-74
2022/02/23 04:57:49;;;;;;;8.55;1.52;;;4.80;99.90;;;;;;5044947;28;20056;-74
2022/02/23 05:00:15;;;;;;;6.90;1.35;;;4.80;99.90;;;;;;5048885;28;20036;-74
2022/02/23 05:02:40;;;;;;;6.13;1.20;;;4.80;99.90;;;;;;5046715;28;20082;-74
2022/02/23 05:05:07;;;;;;;7.30;1.40;;;4.80;99.90;;;;;;5040697;28;20020;-74
2022/02/23 05:07:33;;;;;;;7.00;1.48;;;4.70;99.90;;;;;;5040332;28;20021;-74
2022/02/23 05:09:59;;;;;;;7.38;1.02;;;4.70;99.90;;;;;;5041646;28;20036;-74
2022/02/23 05:12:25;;;;;;;4.40;1.13;;;4.70;99.90;;;;;;5048907;28;20465;-74
2022/02/23 05:14:51;;;;;;;8.27;1.42;;;4.70;99.90;;;;;;5047589;28;20507;-74
2022/02/23 05:17:17;;;;;;;8.70;1.10;;;4.70;99.90;;;;;;5045019;28;20033;-74
2022/02/23 05:19:44;;;;;;;8.63;1.45;;;4.70;99.90;;;;;;5046116;28;20496;-74
2022/02/23 05:22:10;;;;;;;11.95;1.58;;;4.70;99.90;;;;;;5045513;28;20074;-74
2022/02/23 05:24:36;;;;;;;8.63;2.28;;;4.70;99.90;;;;;;5049684;28;20020;-74
2022/02/23 05:27:03;;;;;;;6.57;1.35;;;4.60;99.90;;;;;;5049439;28;21222;-74
2022/02/23 05:29:31;;;;;;;12.38;2.03;;;4.50;99.90;;;;;;5046745;28;20037;-74
2022/02/23 05:31:57;;;;;;;9.45;1.48;;;4.50;99.90;;;;;;5042058;28;20028;-74
2022/02/23 05:34:22;;;;;;;13.95;2.33;;;4.40;99.90;;;;;;5045816;28;20103;-74
2022/02/23 05:36:48;;;;;;;7.85;1.48;;;4.40;99.90;;;;;;5044021;28;20037;-74
2022/02/23 05:39:14;;;;;;;7.20;1.65;;;4.40;99.90;;;;;;5039594;28;20018;-74
2022/02/23 05:41:39;;;;;;;10.52;1.67;;;4.40;99.90;;;;;;5041350;28;20045;-74
2022/02/23 05:44:05;;;;;;;10.05;1.92;;;4.30;99.90;;;;;;5040545;28;20023;-74
2022/02/23 05:46:30;;;;;;;8.68;2.08;;;4.20;99.90;;;;;;5048133;28;20136;-74
2022/02/23 05:48:56;;;;;;;10.15;1.52;;;4.20;99.90;;;;;;5042200;28;20079;-74
2022/02/23 05:51:31;;;;;;;9.07;2.00;;;4.20;99.90;;;;;;5045079;28;20563;-74
2022/02/23 05:53:58;;;;;;;7.68;1.27;;;4.20;99.90;;;;;;5042509;28;20112;-74
2022/02/23 05:56:24;;;;;;;10.93;1.65;;;4.10;99.90;;;;;;5045670;28;20021;-74
2022/02/23 05:58:50;;;;;;;14.82;1.73;;;4.20;99.90;;;;;;5040688;28;20009;-74
2022/02/23 06:01:15;;;;;;;7.50;1.35;;;4.10;99.90;;;;;;5045467;28;20066;-74
2022/02/23 06:03:41;;;;;;;7.35;1.13;;;4.10;99.90;;;;;;5036145;28;20013;-74
2022/02/23 06:06:06;;;;;;;7.80;2.17;;;4.10;99.90;;;;;;5046786;28;20485;-74
2022/02/23 06:08:32;;;;;;;13.43;1.98;;;4.10;99.90;;;;;;5047182;28;20551;-74
2022/02/23 06:10:58;;;;;;;11.55;1.90;;;4.10;99.90;;;;;;5044512;28;20040;-74
2022/02/23 06:13:23;;;;;;;9.90;1.60;;;4.10;99.90;;;;;;5047028;28;20024;-74
2022/02/23 06:15:49;;;;;;;13.98;1.73;;;4.10;99.90;;;;;;5043672;28;20021;-74
2022/02/23 06:18:15;;;;;;;5.63;1.30;;;4.10;99.90;;;;;;5035256;28;20059;-74
2022/02/23 06:20:40;;;;;;;4.18;0.98;;;4.20;99.90;;;;;;5044699;28;20453;-74
2022/02/23 06:23:06;;;;;;;9.88;1.27;;;4.20;99.90;;;;;;5042785;28;20773;-74
2022/02/23 06:25:32;;;;;;;8.27;1.88;;;4.10;99.90;;;;;;5041844;28;20029;-74
2022/02/23 06:27:58;;;;;;;8.18;1.50;;;4.20;99.90;;;;;;5041617;28;20025;-74
2022/02/23 06:30:23;;;;;;;6.38;1.35;;;4.20;99.90;;;;;;5041537;28;20029;-74
2022/02/23 06:32:49;;;;;;;5.82;1.27;;;4.20;99.90;;;;;;5045708;28;20063;-74
2022/02/23 06:35:14;;;;;;;4.63;1.05;;;4.20;99.90;;;;;;5041272;28;20024;-74
2022/02/23 06:37:40;;;;;;;7.50;1.50;;;4.20;99.90;;;;;;5040623;28;20028;-74
2022/02/23 06:40:07;;;;;;;11.02;1.58;;;4.20;99.90;;;;;;5052117;28;20100;-74
2022/02/23 06:42:32;;;;;;;8.48;2.08;;;4.20;99.90;;;;;;5050825;28;20125;-74
2022/02/23 06:44:58;;;;;;;10.32;1.77;;;4.20;99.90;;;;;;5052152;28;20025;-74
2022/02/23 06:47:24;;;;;;;9.32;1.58;;;4.20;99.90;;;;;;5052323;28;20064;-74
2022/02/23 06:49:49;;;;;;;9.57;2.05;;;4.10;99.90;;;;;;5052151;28;20059;-74
2022/02/23 06:52:18;;;;;;;7.88;2.00;;;4.10;99.90;;;;;;5052224;28;20588;-74
2022/02/23 06:54:44;;;;;;;11.35;1.90;;;4.10;99.90;;;;;;5048005;28;20022;-74
2022/02/23 06:57:09;;;;;;;11.88;2.65;;;4.10;99.90;;;;;;5032365;28;20501;-74
2022/02/23 06:59:37;;;;;;;10.40;1.90;;;4.10;99.90;;;;;;5032499;28;20394;-74
2022/02/23 07:02:03;;;;;;;9.63;2.35;;;4.00;99.90;;;;;;5032416;28;20028;-74
2022/02/23 07:04:28;;;;;;;10.32;2.33;;;4.00;99.90;;;;;;5032667;28;20029;-74
2022/02/23 07:06:54;;;;;;;7.97;1.70;;;4.00;99.90;;;;;;5032281;28;20476;-74
2022/02/23 07:09:19;;;;;;;13.52;3.97;;;4.10;99.90;;;;;;5032404;28;20449;-74
2022/02/23 07:11:45;;;;;;;10.95;2.10;;;4.10;99.90;;;;;;5031121;28;20572;-74
2022/02/23 07:14:11;;;;;;;10.70;2.10;;;4.10;99.90;;;;;;5031012;28;20032;-74
2022/02/23 07:16:37;;;;;;;9.93;1.50;;;4.10;99.90;;;;;;5032270;28;20037;-74
2022/02/23 07:19:03;;;;;;;6.28;2.03;;;4.10;99.90;;;;;;5032710;28;20084;-74
2022/02/23 07:21:28;;;;;;;5.00;1.45;;;4.20;99.90;;;;;;5050723;28;20036;-74
2022/02/23 07:23:55;;;;;;;9.00;1.75;;;4.20;99.90;;;;;;5066006;28;20021;-74
2022/02/23 07:26:21;;;;;;;10.35;2.10;;;4.20;99.90;;;;;;5050934;28;20017;-74
2022/02/23 07:28:47;;;;;;;14.73;2.40;;;4.20;99.90;;;;;;5048464;28;20031;-74
2022/02/23 07:31:14;;;;;;;11.23;3.30;;;4.20;99.90;;;;;;5054861;28;20459;-74
2022/02/23 07:33:40;;;;;;;13.85;3.00;;;4.20;99.90;;;;;;5054784;28;20416;-74
2022/02/23 07:36:06;;;;;;;13.27;2.53;;;4.20;99.90;;;;;;5055608;28;20082;-74
2022/02/23 07:38:32;;;;;;;14.13;2.17;;;4.30;99.90;;;;;;5055792;28;20029;-74
2022/02/23 07:40:58;;;;;;;15.93;3.50;;;4.30;99.90;;;;;;5055551;28;20056;-74
2022/02/23 07:43:24;;;;;;;11.35;2.35;;;4.30;99.90;;;;;;5071159;28;20104;-74
2022/02/23 07:45:53;;;;;;;10.50;2.38;;;4.30;99.90;;;;;;5055624;28;20051;-74
2022/02/23 07:48:19;;;;;;;12.15;2.40;;;4.30;99.90;;;;;;5054686;28;20079;-74
2022/02/23 07:50:44;;;;;;;12.52;2.58;;;4.40;99.90;;;;;;5053819;28;20388;-75
2022/02/23 07:53:10;;;;;;;15.50;3.42;;;4.40;99.90;;;;;;5060485;28;20017;-75
2022/02/23 07:55:37;;;;;;;10.27;2.78;;;4.40;99.90;;;;;;5061436;28;20029;-74
2022/02/23 07:58:04;;;;;;;19.42;3.53;;;4.50;99.90;;;;;;5044058;28;20048;-74
2022/02/23 08:00:30;;;;;;;11.57;2.58;;;4.60;99.90;;;;;;5063428;28;20033;-74
2022/02/23 08:02:55;;;;;;;11.63;3.25;;;4.60;99.90;;;;;;5053429;28;20544;-74
2022/02/23 08:05:21;;;;;;;14.55;3.55;;;4.60;99.90;;;;;;5053500;28;20052;-74
2022/02/23 08:07:47;;;;;;;19.45;4.07;;;4.70;99.90;;;;;;5053569;28;20021;-74
2022/02/23 08:10:12;;;;;;;11.50;3.25;;;4.70;99.90;;;;;;5051638;28;20064;-74
2022/02/23 08:12:38;;;;;;;15.07;4.03;;;4.80;99.90;;;;;;5052571;28;20036;-75
2022/02/23 08:19:30;;;;;;;12.90;3.70;;;4.90;99.90;;;;;;5052029;28;20049;-75
2022/02/23 08:20:37;;;;;;;16.35;4.78;;;5.00;99.90;;;;;;5051539;28;20032;-76
2022/02/23 08:23:03;;;;;;;16.38;4.35;;;5.10;99.90;;;;;;5051615;28;20021;-75
2022/02/23 08:25:28;;;;;;;15.30;4.55;;;5.10;99.90;;;;;;5052763;28;20051;-75
2022/02/23 08:27:55;;;;;;;19.52;4.97;;;5.20;99.90;;;;;;5051553;28;20041;-75
2022/02/23 08:30:21;;;;;;;16.80;5.35;;;5.30;99.90;;;;;;5051590;28;20119;-75
2022/02/23 08:32:48;;;;;;;23.25;6.75;;;5.30;99.90;;;;;;5049225;28;20512;-75
2022/02/23 08:35:14;;;;;;;19.27;6.35;;;5.40;99.90;;;;;;5063630;28;20056;-75
2022/02/23 08:37:39;;;;;;;17.05;5.03;;;5.40;99.90;;;;;;5054047;28;20067;-74
2022/02/23 08:40:05;;;;;;;20.67;6.97;;;5.50;99.90;;;;;;5069827;28;20028;-74
2022/02/23 08:42:31;;;;;;;16.65;5.38;;;5.50;99.90;;;;;;5053404;28;20199;-75
2022/02/23 08:44:57;;;;;;;18.05;6.00;;;5.60;99.90;;;;;;5050311;28;20636;-75
2022/02/23 08:47:25;;;;;;;15.98;5.28;;;5.70;99.90;;;;;;5049875;28;20072;-74
2022/02/23 08:49:51;;;;;;;25.42;6.30;;;5.80;99.90;;;;;;5034589;28;20454;-74
2022/02/23 08:52:17;;;;;;;19.25;6.22;;;5.80;99.90;;;;;;5053630;28;20040;-74
2022/02/23 08:54:43;;;;;;;19.98;6.18;;;5.90;99.90;;;;;;5051039;28;20385;-74
2022/02/23 08:57:09;;;;;;;21.92;6.78;;;6.00;99.90;;;;;;5033899;28;20481;-74
2022/02/23 08:59:35;;;;;;;19.77;5.57;;;6.10;99.90;;;;;;5033914;28;20110;-74
2022/02/23 09:02:01;;;;;;;14.73;5.88;;;6.10;99.90;;;;;;5034337;28;20029;-74
2022/02/23 09:04:28;;;;;;;18.77;6.65;;;6.20;99.90;;;;;;5034197;28;20056;-75
2022/02/23 09:06:54;;;;;;;26.85;7.30;;;6.20;99.90;;;;;;5033838;28;20353;-74
2022/02/23 09:09:22;;;;;;;20.52;7.90;;;6.30;99.90;;;;;;5034065;28;20025;-74
2022/02/23 09:11:47;;;;;;;20.17;6.80;;;6.40;99.90;;;;;;5033855;28;20029;-74
2022/02/23 09:14:15;;;;;;;19.67;7.10;;;6.40;99.90;;;;;;5033825;28;20414;-74
2022/02/23 09:16:41;;;;;;;18.70;7.05;;;6.50;99.90;;;;;;5034175;28;20377;-74
2022/02/23 09:19:08;;;;;;;20.33;7.32;;;6.60;99.90;;;;;;5036954;28;20370;-74
2022/02/23 09:21:34;;;;;;;21.13;7.65;;;6.60;99.90;;;;;;5053151;28;20029;-73
2022/02/23 09:24:00;;;;;;;20.42;7.80;;;6.70;99.90;;;;;;5053164;28;20112;-74
2022/02/23 09:26:28;;;;;;;21.85;8.40;;;6.80;99.90;;;;;;5051897;28;20025;-73
2022/02/23 09:28:54;;;;;;;19.13;7.55;;;6.80;99.90;;;;;;5053187;28;20021;-73
2022/02/23 09:31:19;;;;;;;17.95;8.18;;;6.90;99.90;;;;;;5052566;28;20039;-74
2022/02/23 09:33:45;;;;;;;21.17;8.10;;;7.00;99.90;;;;;;5064183;28;20079;-74
2022/02/23 09:36:10;;;;;;;21.65;9.07;;;7.00;99.90;;;;;;5053011;28;20533;-74
2022/02/23 09:38:36;;;;;;;24.20;8.27;;;7.10;99.90;;;;;;5052445;28;20516;-74
2022/02/23 09:41:04;;;;;;;15.45;7.30;;;7.20;99.90;;;;;;5047115;28;20041;-74
2022/02/23 09:43:30;;;;;;;23.95;8.50;;;7.30;99.90;;;;;;5048729;28;20484;-74
2022/02/23 09:45:56;;;;;;;19.35;7.35;;;7.40;99.90;;;;;;5033218;28;20027;-74
2022/02/23 09:48:25;;;;;;;17.55;7.15;;;7.50;99.90;;;;;;5033343;28;20505;-74
2022/02/23 09:50:51;;;;;;;19.05;7.18;;;7.60;99.90;;;;;;5033286;28;20048;-74
2022/02/23 09:53:17;;;;;;;17.95;6.40;;;7.70;99.90;;;;;;5033086;28;20017;-73
2022/02/23 09:55:43;;;;;;;13.35;6.45;;;7.80;99.90;;;;;;5048747;28;20021;-74
2022/02/23 09:58:09;;;;;;;21.25;7.32;;;8.00;99.90;;;;;;5051093;28;20033;-73
2022/02/23 10:00:35;;;;;;;14.23;6.22;;;8.10;99.90;;;;;;5051088;28;20465;-73
2022/02/23 10:03:00;;;;;;;16.98;7.00;;;8.30;99.90;;;;;;5050925;28;20103;-74
2022/02/23 10:05:26;;;;;;;21.65;7.00;;;8.40;99.90;;;;;;5050748;28;20016;-73
2022/02/23 10:08:02;;;;;;;13.25;5.50;;;8.50;99.90;;;;;;5050918;28;20024;-73
2022/02/23 10:10:36;;;;;;;17.80;6.13;;;8.70;99.90;;;;;;5048948;28;20392;-73
2022/02/23 10:13:05;;;;;;;18.98;6.07;;;8.80;99.90;;;;;;5050799;28;20025;-73
2022/02/23 10:15:36;;;;;;;15.27;4.45;;;9.00;99.90;;;;;;5050794;28;20025;-73
2022/02/23 10:18:11;;;;;;;13.18;4.90;;;9.20;99.90;;;;;;5050769;28;20052;-73
2022/02/23 10:20:39;;;;;;;20.83;5.00;;;9.30;99.90;;;;;;5049705;28;20025;-74
2022/02/23 10:23:20;;;;;;;12.07;4.47;;;9.50;99.90;;;;;;5048062;28;20017;-73
2022/02/23 10:25:58;;;;;;;16.60;4.25;;;9.80;99.90;;;;;;5055589;28;20013;-73
2022/02/23 10:28:30;;;;;;;9.07;3.67;;;10.10;98.90;;;;;;5049275;28;20017;-73
2022/02/23 10:30:58;;;;;;;11.20;3.47;;;10.40;98.60;;;;;;5050774;28;20041;-73
2022/02/23 10:33:26;;;;;;;10.43;3.60;;;10.90;99.20;;;;;;5054641;28;20017;-74
2022/02/23 10:36:03;;;;;;;11.60;3.83;;;11.90;97.00;;;;;;5052161;28;20021;-73
2022/02/23 10:38:41;;;;;;;9.90;3.10;;;14.60;92.30;;;;;;5049530;28;20108;-74
2022/02/23 10:41:08;;;;;;;9.23;3.03;;;16.90;79.80;;;;;;5052381;28;20493;-74
2022/02/23 10:43:36;;;;;;;11.20;3.42;;;18.80;71.20;;;;;;5052351;28;20025;-73
2022/02/23 10:46:03;;;;;;;10.02;2.80;;;20.60;62.50;;;;;;5050385;28;20025;-74
2022/02/23 10:48:31;;;;;;;9.40;2.70;;;21.90;57.20;;;;;;5049311;28;20036;-74
2022/02/23 10:50:56;;;;;;;7.32;2.22;;;23.10;51.70;;;;;;5050353;28;20029;-74
2022/02/23 10:53:27;;;;;;;8.68;3.00;;;24.10;50.40;;;;;;5049908;28;20107;-73
2022/02/23 10:55:53;;;;;;;9.63;2.95;;;25.30;48.80;;;;;;5048784;28;20451;-73
2022/02/23 10:58:19;;;;;;;7.30;2.50;;;26.40;44.60;;;;;;5048800;28;20513;-74
2022/02/23 11:00:49;;;;;;;9.40;3.20;;;27.20;44.90;;;;;;5050097;28;20033;-74
2022/02/23 11:03:18;;;;;;;7.47;2.80;;;28.40;43.90;;;;;;5049804;28;20024;-75
2022/02/23 11:05:48;;;;;;;7.47;2.40;;;29.50;41.10;;;;;;5068354;28;20086;-74
2022/02/23 11:08:15;;;;;;;8.98;3.00;;;29.90;38.30;;;;;;5054880;28;20079;-74
2022/02/23 11:10:46;;;;;;;6.85;2.22;;;30.10;37.70;;;;;;5054370;28;20485;-74
2022/02/23 11:13:12;;;;;;;5.50;2.20;;;30.40;37.60;;;;;;5054839;28;20023;-74
2022/02/23 11:15:52;;;;;;;6.93;2.15;;;31.10;37.90;;;;;;5054489;28;20029;-74
2022/02/23 11:18:21;;;;;;;5.97;2.25;;;32.60;37.40;;;;;;5052878;28;20124;-75
2022/02/23 11:20:48;;;;;;;8.60;2.22;;;33.60;34.70;;;;;;5054119;28;20108;-74
2022/02/23 11:23:22;;;;;;;6.35;2.08;;;33.40;33.20;;;;;;5054097;28;20021;-74
2022/02/23 11:25:51;;;;;;;7.22;2.42;;;33.30;33.10;;;;;;5053723;28;20041;-74
2022/02/23 11:28:23;;;;;;;;;;;34.10;33.70;;;;;;5061580;28;20022;-74
2022/02/23 11:30:57;;;;;;;6.40;2.70;;;33.50;31.90;;;;;;5053843;28;20372;-74
2022/02/23 11:33:50;;;;;;;6.07;2.08;;;32.90;31.90;;;;;;5043360;28;20105;-74
2022/02/23 11:36:24;;;;;;;6.93;2.42;;;33.00;33.10;;;;;;5054285;28;20112;-74
2022/02/23 11:38:52;;;;;;;7.50;2.30;;;33.50;31.70;;;;;;5053975;28;20071;-74
2022/02/23 11:41:39;;;;;;;7.65;2.13;;;33.00;32.50;;;;;;5053628;28;20053;-74
2022/02/23 11:44:16;;;;;;;7.05;2.33;;;32.90;31.60;;;;;;5055223;28;20025;-74
2022/02/23 11:46:51;;;;;;;9.05;3.17;;;32.50;32.40;;;;;;5054228;28;20021;-74
2022/02/23 11:49:20;;;;;;;8.30;2.92;;;32.10;32.20;;;;;;5045993;28;20022;-74
2022/02/23 11:51:46;;;;;;;7.60;2.53;;;31.30;31.60;;;;;;5041339;28;20055;-74
2022/02/23 11:54:13;;;;;;;5.80;1.90;;;30.50;32.90;;;;;;5059975;28;20029;-74
2022/02/23 11:56:47;;;;;;;5.03;1.67;;;30.80;34.00;;;;;;5051031;28;20043;-74
2022/02/23 11:59:44;;;;;;;5.40;2.10;;;31.60;34.20;;;;;;5051003;28;20469;-74
2022/02/23 12:02:14;;;;;;;8.03;2.30;;;32.40;33.30;;;;;;5050915;28;20085;-75
2022/02/23 12:04:46;;;;;;;4.60;1.67;;;32.50;33.30;;;;;;5045671;28;20028;-74
2022/02/23 12:07:12;;;;;;;5.47;1.95;;;32.80;32.70;;;;;;5049886;28;20029;-74
2022/02/23 12:09:53;;;;;;;6.15;1.95;;;32.60;31.40;;;;;;5041648;28;20061;-75
2022/02/23 12:12:39;;;;;;;6.93;2.08;;;32.50;31.80;;;;;;5050085;28;20099;-74
2022/02/23 12:15:19;;;;;;;6.43;2.00;;;32.50;32.20;;;;;;5044706;28;20017;-74
2022/02/23 12:17:52;;;;;;;5.63;1.92;;;32.70;33.20;;;;;;5048729;28;20068;-75
2022/02/23 12:20:36;;;;;;;7.35;2.25;;;33.10;31.90;;;;;;5048602;28;20500;-75
2022/02/23 12:23:26;;;;;;;7.00;2.60;;;31.90;32.50;;;;;;5061933;28;20044;-74
2022/02/23 12:26:06;;;;;;;6.55;1.80;;;31.70;32.60;;;;;;5034979;28;20037;-74
2022/02/23 12:28:37;;;;;;;7.50;3.03;;;32.00;33.20;;;;;;5042925;28;20036;-75
2022/02/23 12:31:13;;;;;;;5.22;1.95;;;32.00;32.30;;;;;;5044100;28;20036;-75
2022/02/23 12:33:41;;;;;;;6.18;1.90;;;31.80;31.70;;;;;;5042224;28;20421;-75
2022/02/23 12:36:10;;;;;;;5.77;1.97;;;31.40;31.40;;;;;;5048798;28;20384;-74
2022/02/23 12:38:40;;;;;;;5.28;2.33;;;30.90;32.00;;;;;;5047588;28;20527;-75
2022/02/23 12:41:10;;;;;;;7.57;2.13;;;30.40;31.40;;;;;;5049454;28;20076;-75
2022/02/23 12:43:39;;;;;;;5.68;1.92;;;30.20;31.80;;;;;;5047018;28;20017;-74
2022/02/23 12:46:05;;;;;;;6.40;1.80;;;30.30;32.70;;;;;;5046706;28;20067;-75
2022/02/23 12:48:34;;;;;;;7.00;2.08;;;30.60;32.00;;;;;;5047903;28;20472;-75
2022/02/23 12:51:05;;;;;;;4.97;2.10;;;29.80;31.80;;;;;;5049577;28;20043;-74
2022/02/23 12:53:36;;;;;;;5.30;1.85;;;29.20;32.80;;;;;;5048111;28;20404;-74